GW5966 Weather Reports


time (UTC)temp
F
wind
direction
speed
knots
gust
knots
rain 1hr
in
rain 24hr
in
rain mn
in
humidity
%
barometer
mb
20260504204517 81 129 0.0 2.6 0.00 0.00 0.00 40 1010.7
20260504203027 82 129 0.0 2.6 0.00 0.00 0.00 40 1010.8
20260504201506 82 129 1.7 3.5 0.00 0.00 0.00 40 1010.9
20260504200012 82 129 0.9 2.6 0.00 0.00 0.00 40 1011.0
20260504194514 82 117 0.9 2.6 0.00 0.00 0.00 46 1011.2
20260504193021 82 129 0.9 2.6 0.00 0.00 0.00 39 1011.4
20260504191526 81 129 0.9 3.5 0.00 0.00 0.00 40 1011.4
20260504190007 82 129 0.9 4.3 0.00 0.00 0.00 41 1011.6
20260504184514 82 129 0.9 2.6 0.00 0.00 0.00 43 1011.6
20260504183015 82 10 0.9 2.6 0.00 0.00 0.00 47 1011.8
20260504181522 81 352 0.0 1.7 0.00 0.00 0.00 45 1012.0
20260504180026 79 352 0.0 1.7 0.00 0.00 0.00 45 1012.3
20260504174509 79 352 0.0 1.7 0.00 0.00 0.00 45 1012.6
20260504173010 77 352 1.7 4.3 0.00 0.00 0.00 43 1012.8
20260504171516 77 352 1.7 3.5 0.00 0.00 0.00 44 1013.0
20260504081507 45 352 0.0 0.0 0.00 0.00 0.00 93 1013.8
20260504050020 48 352 0.0 0.0 0.00 0.00 0.00 90 1015.1
20260504044518 49 352 0.0 0.0 0.00 0.00 0.00 91 1015.0
20260504043023 49 352 0.0 0.0 0.00 0.00 0.00 90 1015.3
20260504041512 49 352 0.0 0.0 0.00 0.00 0.00 90 1015.4
20260504040018 50 352 0.0 0.0 0.00 0.00 0.00 89 1015.5
20260504034521 50 352 0.0 0.0 0.00 0.00 0.00 89 1015.5
20260504033020 51 352 0.0 0.0 0.00 0.00 0.00 88 1015.4
20260504031526 51 352 0.0 0.0 0.00 0.00 0.00 87 1015.5
20260504030011 51 352 0.0 0.0 0.00 0.00 0.00 86 1015.5
20260504024518 52 352 0.0 0.0 0.00 0.00 0.00 85 1015.4
20260504023020 53 352 0.0 0.0 0.00 0.00 0.00 84 1015.3
20260504021504 53 352 0.0 0.0 0.00 0.00 0.00 84 1015.2
20260504020008 54 352 0.0 0.0 0.00 0.00 0.00 82 1015.0
20260504014513 55 352 0.0 0.0 0.00 0.00 0.00 81 1014.9
20260504013024 56 352 0.0 0.0 0.00 0.00 0.00 79 1014.6
20260504011520 57 352 0.0 0.0 0.00 0.00 0.00 75 1014.7
20260504010003 58 352 0.0 0.0 0.00 0.00 0.00 72 1014.6
20260504004510 60 352 0.0 0.0 0.00 0.00 0.00 69 1014.5
20260504003012 61 352 0.0 0.0 0.00 0.00 0.00 68 1014.4
20260504001518 62 352 0.0 0.0 0.00 0.00 0.00 63 1014.4
20260504000049 63 352 0.0 0.0 0.00 0.00 0.00 58 1014.5
20260503234526 64 352 0.0 0.0 0.00 0.00 0.00 55 1014.5
20260503233011 66 352 0.0 0.0 0.00 0.00 0.00 53 1014.6
20260503231516 66 352 0.0 0.0 0.00 0.00 0.00 51 1014.5
20260503230020 67 352 0.0 0.9 0.00 0.00 0.00 45 1014.5
20260503224522 69 352 0.0 0.9 0.00 0.00 0.00 49 1014.5
20260503223035 69 352 0.0 1.7 0.00 0.00 0.00 42 1014.5
20260503221509 70 352 0.0 0.9 0.00 0.00 0.00 40 1014.7
20260503220016 70 352 0.0 2.6 0.00 0.00 0.00 39 1014.8
20260503214524 71 352 0.0 1.7 0.00 0.00 0.00 39 1014.9
20260503213024 71 352 0.9 3.5 0.00 0.00 0.00 41 1015.1
20260503211523 72 352 0.0 3.5 0.00 0.00 0.00 37 1015.4
20260503210012 73 352 0.9 3.5 0.00 0.00 0.00 35 1015.6